ADDS METAR Data INFO
IDs: Format: Raw Decoded Include TAF

Data at: 1612 UTC 14 Aug 2018

KLOT 141555Z AUTO 24004KT 10SM CLR 28/18 A3002 RMK AO2 T02760179
KLOT 141535Z AUTO 22004KT 10SM CLR 27/18 A3002 RMK AO2 T02700183
KLOT 141515Z AUTO 24005KT 10SM CLR 26/18 A3002 RMK AO2 T02620180
KLOT 141455Z AUTO 26005KT 10SM CLR 26/18 A3002 RMK AO2 T02560181
KLOT 141435Z AUTO 27004KT 10SM CLR 25/19 A3002 RMK AO2 T02500190
KLOT 141415Z AUTO 29006KT 10SM CLR 25/19 A3002 RMK AO2 T02510188
KLOT 141355Z AUTO 00000KT 7SM CLR 24/19 A3002 RMK AO2 T02370190
KLOT 141335Z AUTO 00000KT 10SM CLR 22/19 A3002 RMK AO2 T02240188
KLOT 141315Z AUTO 00000KT 10SM CLR 22/18 A3002 RMK AO2 T02150184
KLOT 141255Z AUTO 00000KT 7SM CLR 21/19 A3002 RMK AO2 T02070186
KLOT 141235Z AUTO 00000KT 7SM CLR 20/18 A3002 RMK AO2 T01950183
KLOT 141215Z AUTO 00000KT 5SM BR CLR 19/18 A3001 RMK AO2 T01850178
KLOT 141155Z AUTO 00000KT 5SM BR CLR 18/17 A3002 RMK AO2 T01750168 10202 20163
KLOT 141135Z AUTO 00000KT 5SM BR CLR 17/17 A3001 RMK AO2 T01730166
KLOT 141115Z AUTO 00000KT 7SM CLR 17/16 A3002 RMK AO2 T01660159
KLOT 141055Z AUTO 00000KT 5SM BR CLR 17/16 A3001 RMK AO2 T01660160
KLOT 141035Z AUTO 00000KT 7SM CLR 17/16 A3001 RMK AO2 T01660158
KLOT 141015Z AUTO 00000KT 7SM CLR 17/16 A3001 RMK AO2 T01660159
KLOT 140955Z AUTO 00000KT 7SM CLR 17/16 A3001 RMK AO2 T01660157
KLOT 140935Z AUTO 00000KT 7SM CLR 18/16 A3001 RMK AO2 T01760163
KLOT 140915Z AUTO 00000KT 10SM CLR 17/16 A3000 RMK AO2 T01650155
KLOT 140855Z AUTO 27003KT 10SM CLR 18/16 A3000 RMK AO2 T01780163
KLOT 140835Z AUTO 29003KT 10SM CLR 17/16 A3001 RMK AO2 T01700161
KLOT 140815Z AUTO 20003KT 10SM CLR 17/16 A3001 RMK AO2 T01740158
KLOT 140755Z AUTO 17004KT 10SM CLR 18/16 A3001 RMK AO2 T01800162
KLOT 140735Z AUTO 00000KT 10SM CLR 18/16 A3001 RMK AO2 T01770162
KLOT 140715Z AUTO 14004KT 10SM CLR 18/16 A3001 RMK AO2 T01820162
KLOT 140655Z AUTO 14003KT 10SM CLR 19/17 A3001 RMK AO2 T01920165
KLOT 140635Z AUTO 00000KT 10SM CLR 19/17 A3002 RMK AO2 T01910165
KLOT 140610Z AUTO 00000KT 10SM CLR 20/17 A3003 RMK AO2 T02000166
KLOT 140555Z AUTO 00000KT 10SM CLR 20/16 A3002 RMK AO2 T02000163 10283 20196 403140156
KLOT 140535Z AUTO 12003KT 10SM CLR 20/16 A3002 RMK AO2 T02000161
KLOT 140515Z AUTO 17003KT 10SM CLR 21/16 A3003 RMK AO2 T02050160
KLOT 140455Z AUTO 00000KT 10SM CLR 21/16 A3003 RMK AO2 T02060160
KLOT 140435Z AUTO 00000KT 10SM CLR 20/16 A3003 RMK AO2 T02000160
KLOT 140415Z AUTO 15003KT 10SM CLR 21/16 A3003 RMK AO2 T02080160
KLOT 140355Z AUTO 00000KT 10SM CLR 21/16 A3003 RMK AO2 T02130161
KLOT 140335Z AUTO 00000KT 10SM CLR 21/16 A3004 RMK AO2 T02120158
KLOT 140315Z AUTO 00000KT 10SM CLR 22/16 A3004 RMK AO2 T02220160
KLOT 140255Z AUTO 16004KT 10SM CLR 22/17 A3004 RMK AO2 T02200170
KLOT 140235Z AUTO 00000KT 10SM CLR 22/17 A3004 RMK AO2 T02220172
KLOT 140215Z AUTO 00000KT 10SM CLR 24/17 A3003 RMK AO2 T02400172
KLOT 140155Z AUTO 00000KT 10SM CLR 23/18 A3003 RMK AO2 T02320175
KLOT 140135Z AUTO 00000KT 10SM CLR 24/18 A3003 RMK AO2 T02360176
KLOT 140115Z AUTO 29004KT 10SM SCT070 25/17 A3002 RMK AO2 T02510173
KLOT 140055Z AUTO 27005KT 10SM SCT070 25/17 A3002 RMK AO2 T02500174
KLOT 140035Z AUTO 27005KT 10SM SCT070 26/17 A3001 RMK AO2 T02600171
KLOT 140015Z AUTO 28005KT 10SM SCT070 27/17 A3001 RMK AO2 T02740167
KLOT 132355Z AUTO 28006KT 10SM SCT070 29/16 A3001 RMK AO2 T02850162 10314 20285
KLOT 132335Z AUTO 27004KT 10SM BKN070 29/17 A3001 RMK AO2 T02870166
KLOT 132315Z AUTO 00000KT 10SM CLR 29/16 A3001 RMK AO2 T02930158
KLOT 132255Z AUTO 00000KT 10SM CLR 30/15 A3001 RMK AO2 T02950151
KLOT 132235Z AUTO 00000KT 10SM CLR 30/14 A3001 RMK AO2 T03000140
KLOT 132215Z AUTO 00000KT 10SM CLR 30/15 A3001 RMK AO2 T02970152
KLOT 132155Z AUTO 23004KT 10SM CLR 30/15 A3002 RMK AO2 T02990152
KLOT 132135Z AUTO 00000KT 10SM CLR 31/13 A3002 RMK AO2 T03100128
KLOT 132115Z AUTO 06003KT 10SM CLR 31/13 A3003 RMK AO2 T03100127
KLOT 132055Z AUTO 13003KT 10SM CLR 31/13 A3004 RMK AO2 T03120133
KLOT 132035Z AUTO 12004KT 10SM CLR 31/13 A3004 RMK AO2 T03110127
KLOT 132015Z AUTO 13004KT 10SM CLR 31/13 A3005 RMK AO2 T03120134
KLOT 131955Z AUTO 12005KT 10SM CLR 31/14 A3005 RMK AO2 T03110136
KLOT 131935Z AUTO 17003KT 10SM CLR 31/14 A3006 RMK AO2 T03080138
KLOT 131915Z AUTO 16005KT 10SM CLR 31/14 A3006 RMK AO2 T03060138
KLOT 131855Z AUTO 00000KT 10SM SCT070 30/13 A3007 RMK AO2 T03010134
KLOT 131835Z AUTO 17004KT 10SM SCT060 30/14 A3008 RMK AO2 T03000135
KLOT 131815Z AUTO 17005KT 10SM SCT060 30/14 A3008 RMK AO2 T03020137
KLOT 131755Z AUTO 20003KT 10SM SCT065 30/14 A3009 RMK AO2 T02970143 10300 20180
KLOT 131735Z AUTO 18004KT 10SM SCT065 30/14 A3009 RMK AO2 T02970141
KLOT 131715Z AUTO 00000KT 10SM CLR 29/14 A3010 RMK AO2 T02930144
KLOT 131655Z AUTO 00000KT 10SM CLR 29/14 A3011 RMK AO2 T02910143
KLOT 131635Z AUTO 00000KT 10SM CLR 29/16 A3012 RMK AO2 T02860157
KLOT 131615Z AUTO 33004KT 10SM CLR 28/16 A3012 RMK AO2 T02800160
KLOT 131555Z AUTO 00000KT 10SM CLR 28/17 A3012 RMK AO2 T02770167
KLOT 131535Z AUTO 29004KT 10SM CLR 27/18 A3013 RMK AO2 T02690175
KLOT 131515Z AUTO 28004KT 10SM CLR 27/17 A3013 RMK AO2 T02660174
KLOT 131455Z AUTO 30003KT 10SM CLR 26/19 A3014 RMK AO2 T02590188
KLOT 131435Z AUTO 00000KT 10SM CLR 25/19 A3013 RMK AO2 T02500188
KLOT 131415Z AUTO 00000KT 10SM CLR 24/19 A3013 RMK AO2 T02410192
KLOT 131355Z AUTO 00000KT 10SM CLR 23/19 A3013 RMK AO2 T02330192
KLOT 131335Z AUTO 00000KT 10SM CLR 23/18 A3013 RMK AO2 T02250183
KLOT 131315Z AUTO 00000KT 10SM CLR 22/18 A3013 RMK AO2 T02160180
KLOT 131255Z AUTO 00000KT 10SM CLR 21/17 A3013 RMK AO2 T02050172
KLOT 131235Z AUTO 00000KT 7SM CLR 20/18 A3013 RMK AO2 T01950178
KLOT 131215Z AUTO 00000KT 10SM SCT005 19/17 A3012 RMK AO2 T01860169
KLOT 131155Z AUTO 00000KT 7SM BKN005 18/17 A3012 RMK AO2 T01800169 10182 20156
KLOT 131135Z AUTO 00000KT 7SM OVC005 18/16 A3012 RMK AO2 T01760164
KLOT 131115Z AUTO 00000KT 7SM BKN005 17/16 A3011 RMK AO2 T01680160
KLOT 131055Z AUTO 00000KT 7SM SCT005 18/17 A3011 RMK AO2 T01750167
KLOT 131035Z AUTO 00000KT 10SM BKN003 18/17 A3011 RMK AO2 T01800170
KLOT 131015Z AUTO 00000KT 10SM OVC003 18/17 A3011 RMK AO2 T01790172
KLOT 130955Z AUTO 00000KT 7SM BKN003 16/16 A3012 RMK AO2 T01620158
KLOT 130935Z AUTO 00000KT 7SM SCT003 16/16 A3011 RMK AO2 T01630158
KLOT 130915Z AUTO 29003KT 7SM BKN003 18/17 A3012 RMK AO2 T01770173
KLOT 130855Z AUTO 29003KT 7SM CLR 17/17 A3012 RMK AO2 T01730168
KLOT 130835Z AUTO 27003KT 10SM CLR 16/16 A3012 RMK AO2 T01640157
KLOT 130815Z AUTO 28005KT 10SM CLR 17/16 A3012 RMK AO2 T01670161
KLOT 130755Z AUTO 00000KT 10SM CLR 17/16 A3012 RMK AO2 T01690158
KLOT 130735Z AUTO 00000KT 10SM CLR 18/16 A3012 RMK AO2 T01750156
KLOT 130715Z AUTO 04003KT 10SM CLR 17/15 A3012 RMK AO2 T01700154
KLOT 130655Z AUTO 00000KT 10SM CLR 17/15 A3012 RMK AO2 T01710151
KLOT 130635Z AUTO 00000KT 10SM CLR 17/15 A3013 RMK AO2 T01740149
KLOT 130615Z AUTO 00000KT 10SM CLR 18/16 A3013 RMK AO2 T01770156
KLOT 130555Z AUTO 00000KT 10SM CLR 18/15 A3013 RMK AO2 T01780147 10277 20168 403160168
KLOT 130535Z AUTO 00000KT 10SM CLR 18/15 A3014 RMK AO2 T01800149
KLOT 130515Z AUTO 00000KT 10SM CLR 18/14 A3014 RMK AO2 T01750138
KLOT 130455Z AUTO 00000KT 10SM CLR 20/15 A3013 RMK AO2 T01980152
KLOT 130435Z AUTO 00000KT 10SM CLR 19/15 A3013 RMK AO2 T01930147
KLOT 130415Z AUTO 00000KT 10SM CLR 20/15 A3013 RMK AO2 T02030145